sensor_id;sensor_type;location;lat;lon;timestamp;P1;durP1;ratioP1;P2;durP2;ratioP2
52512;SDS011;38422;53.172;6.974;2024-01-27T00:01:22;12.15;;;2.20;;
52512;SDS011;38422;53.172;6.974;2024-01-27T00:03:48;19.90;;;2.92;;
52512;SDS011;38422;53.172;6.974;2024-01-27T00:06:14;16.98;;;2.45;;
52512;SDS011;38422;53.172;6.974;2024-01-27T00:08:40;14.05;;;2.50;;
52512;SDS011;38422;53.172;6.974;2024-01-27T00:11:06;14.50;;;2.35;;
52512;SDS011;38422;53.172;6.974;2024-01-27T00:13:31;12.65;;;2.50;;
52512;SDS011;38422;53.172;6.974;2024-01-27T00:15:57;17.55;;;2.42;;
52512;SDS011;38422;53.172;6.974;2024-01-27T00:18:23;13.43;;;2.13;;
52512;SDS011;38422;53.172;6.974;2024-01-27T00:20:48;14.65;;;2.30;;
52512;SDS011;38422;53.172;6.974;2024-01-27T00:23:14;14.27;;;2.30;;
52512;SDS011;38422;53.172;6.974;2024-01-27T00:25:40;14.32;;;1.92;;
52512;SDS011;38422;53.172;6.974;2024-01-27T00:28:06;14.65;;;2.35;;
52512;SDS011;38422;53.172;6.974;2024-01-27T00:30:31;14.55;;;1.88;;
52512;SDS011;38422;53.172;6.974;2024-01-27T00:32:57;13.02;;;2.15;;
52512;SDS011;38422;53.172;6.974;2024-01-27T00:35:23;19.30;;;2.38;;
52512;SDS011;38422;53.172;6.974;2024-01-27T00:37:48;10.82;;;1.73;;
52512;SDS011;38422;53.172;6.974;2024-01-27T00:40:14;11.70;;;2.05;;
52512;SDS011;38422;53.172;6.974;2024-01-27T00:42:40;14.95;;;1.95;;
52512;SDS011;38422;53.172;6.974;2024-01-27T00:45:06;14.68;;;2.28;;
52512;SDS011;38422;53.172;6.974;2024-01-27T00:47:32;8.25;;;1.55;;
52512;SDS011;38422;53.172;6.974;2024-01-27T00:49:57;12.95;;;1.98;;
52512;SDS011;38422;53.172;6.974;2024-01-27T00:52:23;12.45;;;2.03;;
52512;SDS011;38422;53.172;6.974;2024-01-27T00:54:49;14.65;;;1.92;;
52512;SDS011;38422;53.172;6.974;2024-01-27T00:57:15;16.05;;;2.10;;
52512;SDS011;38422;53.172;6.974;2024-01-27T00:59:41;12.50;;;1.88;;
52512;SDS011;38422;53.172;6.974;2024-01-27T01:02:07;15.38;;;2.05;;
52512;SDS011;38422;53.172;6.974;2024-01-27T01:04:32;16.33;;;2.35;;
52512;SDS011;38422;53.172;6.974;2024-01-27T01:06:58;14.68;;;2.30;;
52512;SDS011;38422;53.172;6.974;2024-01-27T01:09:24;17.55;;;2.35;;
52512;SDS011;38422;53.172;6.974;2024-01-27T01:11:50;12.98;;;2.03;;
52512;SDS011;38422;53.172;6.974;2024-01-27T01:14:16;16.70;;;1.98;;
52512;SDS011;38422;53.172;6.974;2024-01-27T01:16:42;13.55;;;2.08;;
52512;SDS011;38422;53.172;6.974;2024-01-27T01:19:08;14.88;;;3.30;;
52512;SDS011;38422;53.172;6.974;2024-01-27T01:21:33;14.27;;;2.15;;
52512;SDS011;38422;53.172;6.974;2024-01-27T01:23:59;16.98;;;2.40;;
52512;SDS011;38422;53.172;6.974;2024-01-27T01:26:25;17.27;;;2.40;;
52512;SDS011;38422;53.172;6.974;2024-01-27T01:28:51;14.43;;;2.08;;
52512;SDS011;38422;53.172;6.974;2024-01-27T01:31:17;19.83;;;2.28;;
52512;SDS011;38422;53.172;6.974;2024-01-27T01:33:42;13.23;;;2.08;;
52512;SDS011;38422;53.172;6.974;2024-01-27T01:36:08;13.30;;;2.03;;
52512;SDS011;38422;53.172;6.974;2024-01-27T01:38:34;12.02;;;2.20;;
52512;SDS011;38422;53.172;6.974;2024-01-27T01:41:00;19.02;;;2.78;;
52512;SDS011;38422;53.172;6.974;2024-01-27T01:43:25;15.50;;;2.15;;
52512;SDS011;38422;53.172;6.974;2024-01-27T01:45:52;12.13;;;2.13;;
52512;SDS011;38422;53.172;6.974;2024-01-27T01:48:19;14.20;;;3.10;;
52512;SDS011;38422;53.172;6.974;2024-01-27T01:50:45;18.80;;;2.15;;
52512;SDS011;38422;53.172;6.974;2024-01-27T01:53:12;16.58;;;2.35;;
52512;SDS011;38422;53.172;6.974;2024-01-27T01:55:38;16.85;;;1.98;;
52512;SDS011;38422;53.172;6.974;2024-01-27T01:58:05;13.40;;;2.22;;
52512;SDS011;38422;53.172;6.974;2024-01-27T02:00:31;12.82;;;2.22;;
52512;SDS011;38422;53.172;6.974;2024-01-27T02:02:57;14.73;;;1.88;;
52512;SDS011;38422;53.172;6.974;2024-01-27T02:05:24;13.38;;;2.00;;
52512;SDS011;38422;53.172;6.974;2024-01-27T02:07:50;17.20;;;2.10;;
52512;SDS011;38422;53.172;6.974;2024-01-27T02:10:17;12.13;;;2.35;;
52512;SDS011;38422;53.172;6.974;2024-01-27T02:12:43;13.80;;;2.15;;
52512;SDS011;38422;53.172;6.974;2024-01-27T02:15:10;11.25;;;2.13;;
52512;SDS011;38422;53.172;6.974;2024-01-27T02:17:39;12.00;;;1.77;;
52512;SDS011;38422;53.172;6.974;2024-01-27T02:20:06;13.82;;;2.45;;
52512;SDS011;38422;53.172;6.974;2024-01-27T02:22:35;10.97;;;1.90;;
52512;SDS011;38422;53.172;6.974;2024-01-27T02:25:02;11.38;;;2.35;;
52512;SDS011;38422;53.172;6.974;2024-01-27T02:27:28;11.35;;;1.70;;
52512;SDS011;38422;53.172;6.974;2024-01-27T02:29:54;15.98;;;2.22;;
52512;SDS011;38422;53.172;6.974;2024-01-27T02:32:20;13.23;;;2.40;;
52512;SDS011;38422;53.172;6.974;2024-01-27T02:34:45;14.43;;;2.08;;
52512;SDS011;38422;53.172;6.974;2024-01-27T02:37:11;12.07;;;2.10;;
52512;SDS011;38422;53.172;6.974;2024-01-27T02:39:37;10.82;;;1.95;;
52512;SDS011;38422;53.172;6.974;2024-01-27T02:42:05;16.45;;;2.72;;
52512;SDS011;38422;53.172;6.974;2024-01-27T02:44:31;11.25;;;1.80;;
52512;SDS011;38422;53.172;6.974;2024-01-27T02:46:57;13.23;;;2.20;;
52512;SDS011;38422;53.172;6.974;2024-01-27T02:49:23;12.52;;;2.20;;
52512;SDS011;38422;53.172;6.974;2024-01-27T02:51:48;13.63;;;2.00;;
52512;SDS011;38422;53.172;6.974;2024-01-27T02:54:14;13.85;;;2.13;;
52512;SDS011;38422;53.172;6.974;2024-01-27T02:56:40;14.25;;;2.03;;
52512;SDS011;38422;53.172;6.974;2024-01-27T02:59:06;8.93;;;1.33;;
52512;SDS011;38422;53.172;6.974;2024-01-27T03:01:31;10.07;;;1.85;;
52512;SDS011;38422;53.172;6.974;2024-01-27T03:03:57;10.77;;;1.48;;
52512;SDS011;38422;53.172;6.974;2024-01-27T03:06:23;11.43;;;2.20;;
52512;SDS011;38422;53.172;6.974;2024-01-27T03:08:48;11.80;;;1.90;;
52512;SDS011;38422;53.172;6.974;2024-01-27T03:11:14;11.13;;;2.35;;
52512;SDS011;38422;53.172;6.974;2024-01-27T03:13:40;10.82;;;1.73;;
52512;SDS011;38422;53.172;6.974;2024-01-27T03:16:10;12.77;;;2.13;;
52512;SDS011;38422;53.172;6.974;2024-01-27T03:18:36;18.30;;;2.75;;
52512;SDS011;38422;53.172;6.974;2024-01-27T03:21:02;10.80;;;1.85;;
52512;SDS011;38422;53.172;6.974;2024-01-27T03:23:28;10.68;;;1.60;;
52512;SDS011;38422;53.172;6.974;2024-01-27T03:25:54;13.95;;;2.00;;
52512;SDS011;38422;53.172;6.974;2024-01-27T03:28:19;12.13;;;1.80;;
52512;SDS011;38422;53.172;6.974;2024-01-27T03:30:45;11.35;;;1.80;;
52512;SDS011;38422;53.172;6.974;2024-01-27T03:33:11;12.88;;;2.50;;
52512;SDS011;38422;53.172;6.974;2024-01-27T03:35:38;10.55;;;1.77;;
52512;SDS011;38422;53.172;6.974;2024-01-27T03:38:05;13.85;;;2.05;;
52512;SDS011;38422;53.172;6.974;2024-01-27T03:40:31;15.68;;;2.10;;
52512;SDS011;38422;53.172;6.974;2024-01-27T03:42:57;13.43;;;2.45;;
52512;SDS011;38422;53.172;6.974;2024-01-27T03:45:22;13.13;;;1.80;;
52512;SDS011;38422;53.172;6.974;2024-01-27T03:47:48;12.75;;;2.10;;
52512;SDS011;38422;53.172;6.974;2024-01-27T03:50:14;12.05;;;1.80;;
52512;SDS011;38422;53.172;6.974;2024-01-27T03:52:40;13.20;;;2.05;;
52512;SDS011;38422;53.172;6.974;2024-01-27T03:55:06;10.85;;;1.70;;
52512;SDS011;38422;53.172;6.974;2024-01-27T03:57:32;11.88;;;1.58;;
52512;SDS011;38422;53.172;6.974;2024-01-27T03:59:58;16.33;;;1.90;;
52512;SDS011;38422;53.172;6.974;2024-01-27T04:02:23;13.10;;;2.15;;
52512;SDS011;38422;53.172;6.974;2024-01-27T04:04:49;12.85;;;1.63;;
52512;SDS011;38422;53.172;6.974;2024-01-27T04:07:15;15.15;;;2.20;;
52512;SDS011;38422;53.172;6.974;2024-01-27T04:09:41;13.57;;;1.98;;
52512;SDS011;38422;53.172;6.974;2024-01-27T04:12:07;12.77;;;2.10;;
52512;SDS011;38422;53.172;6.974;2024-01-27T04:14:32;13.20;;;2.10;;
52512;SDS011;38422;53.172;6.974;2024-01-27T04:16:58;11.80;;;2.20;;
52512;SDS011;38422;53.172;6.974;2024-01-27T04:19:24;13.38;;;2.00;;
52512;SDS011;38422;53.172;6.974;2024-01-27T04:21:49;10.60;;;1.95;;
52512;SDS011;38422;53.172;6.974;2024-01-27T04:24:15;11.30;;;1.45;;
52512;SDS011;38422;53.172;6.974;2024-01-27T04:26:41;15.82;;;2.17;;
52512;SDS011;38422;53.172;6.974;2024-01-27T04:29:06;12.32;;;2.03;;
52512;SDS011;38422;53.172;6.974;2024-01-27T04:31:33;16.10;;;1.90;;
52512;SDS011;38422;53.172;6.974;2024-01-27T04:33:59;13.63;;;2.40;;
52512;SDS011;38422;53.172;6.974;2024-01-27T04:36:28;12.18;;;2.10;;
52512;SDS011;38422;53.172;6.974;2024-01-27T04:38:54;10.73;;;1.67;;
52512;SDS011;38422;53.172;6.974;2024-01-27T04:41:20;13.32;;;2.00;;
52512;SDS011;38422;53.172;6.974;2024-01-27T04:43:46;13.05;;;1.83;;
52512;SDS011;38422;53.172;6.974;2024-01-27T04:46:11;12.70;;;2.00;;
52512;SDS011;38422;53.172;6.974;2024-01-27T04:48:37;9.55;;;1.70;;
52512;SDS011;38422;53.172;6.974;2024-01-27T04:51:03;12.68;;;1.77;;
52512;SDS011;38422;53.172;6.974;2024-01-27T04:53:28;14.30;;;2.05;;
52512;SDS011;38422;53.172;6.974;2024-01-27T04:55:54;12.77;;;1.77;;
52512;SDS011;38422;53.172;6.974;2024-01-27T04:58:20;10.88;;;1.70;;
52512;SDS011;38422;53.172;6.974;2024-01-27T05:00:46;11.00;;;1.73;;
52512;SDS011;38422;53.172;6.974;2024-01-27T05:03:11;16.67;;;2.15;;
52512;SDS011;38422;53.172;6.974;2024-01-27T05:05:42;12.98;;;1.73;;
52512;SDS011;38422;53.172;6.974;2024-01-27T05:08:08;8.85;;;1.92;;
52512;SDS011;38422;53.172;6.974;2024-01-27T05:10:35;13.00;;;1.80;;
52512;SDS011;38422;53.172;6.974;2024-01-27T05:13:01;11.18;;;1.52;;
52512;SDS011;38422;53.172;6.974;2024-01-27T05:15:27;15.70;;;1.60;;
52512;SDS011;38422;53.172;6.974;2024-01-27T05:17:53;14.50;;;1.90;;
52512;SDS011;38422;53.172;6.974;2024-01-27T05:20:19;14.27;;;2.13;;
52512;SDS011;38422;53.172;6.974;2024-01-27T05:22:45;9.25;;;1.52;;
52512;SDS011;38422;53.172;6.974;2024-01-27T05:25:11;12.00;;;1.77;;
52512;SDS011;38422;53.172;6.974;2024-01-27T05:27:37;12.35;;;1.67;;
52512;SDS011;38422;53.172;6.974;2024-01-27T05:30:04;10.77;;;1.60;;
52512;SDS011;38422;53.172;6.974;2024-01-27T05:32:31;13.50;;;1.77;;
52512;SDS011;38422;53.172;6.974;2024-01-27T05:34:56;9.70;;;1.77;;
52512;SDS011;38422;53.172;6.974;2024-01-27T05:37:22;11.77;;;1.80;;
52512;SDS011;38422;53.172;6.974;2024-01-27T05:39:48;14.30;;;2.00;;
52512;SDS011;38422;53.172;6.974;2024-01-27T05:42:13;13.05;;;1.80;;
52512;SDS011;38422;53.172;6.974;2024-01-27T05:44:39;11.88;;;2.00;;
52512;SDS011;38422;53.172;6.974;2024-01-27T05:47:06;10.13;;;1.52;;
52512;SDS011;38422;53.172;6.974;2024-01-27T05:49:32;10.40;;;1.88;;
52512;SDS011;38422;53.172;6.974;2024-01-27T05:51:57;12.75;;;2.38;;
52512;SDS011;38422;53.172;6.974;2024-01-27T05:54:24;12.43;;;2.00;;
52512;SDS011;38422;53.172;6.974;2024-01-27T05:56:49;13.05;;;1.73;;
52512;SDS011;38422;53.172;6.974;2024-01-27T05:59:15;9.57;;;1.80;;
52512;SDS011;38422;53.172;6.974;2024-01-27T06:01:41;12.45;;;1.85;;
52512;SDS011;38422;53.172;6.974;2024-01-27T06:04:08;13.60;;;2.00;;
52512;SDS011;38422;53.172;6.974;2024-01-27T06:06:34;14.52;;;1.75;;
52512;SDS011;38422;53.172;6.974;2024-01-27T06:09:03;12.38;;;1.67;;
52512;SDS011;38422;53.172;6.974;2024-01-27T06:11:29;9.98;;;1.67;;
52512;SDS011;38422;53.172;6.974;2024-01-27T06:13:55;8.60;;;1.45;;
52512;SDS011;38422;53.172;6.974;2024-01-27T06:16:21;13.50;;;1.85;;
52512;SDS011;38422;53.172;6.974;2024-01-27T06:18:48;11.77;;;1.70;;
52512;SDS011;38422;53.172;6.974;2024-01-27T06:21:14;11.38;;;1.83;;
52512;SDS011;38422;53.172;6.974;2024-01-27T06:23:39;14.05;;;2.17;;
52512;SDS011;38422;53.172;6.974;2024-01-27T06:26:09;9.27;;;1.42;;
52512;SDS011;38422;53.172;6.974;2024-01-27T06:28:35;12.52;;;2.00;;
52512;SDS011;38422;53.172;6.974;2024-01-27T06:31:01;11.65;;;1.75;;
52512;SDS011;38422;53.172;6.974;2024-01-27T06:33:28;13.70;;;1.77;;
52512;SDS011;38422;53.172;6.974;2024-01-27T06:35:53;14.23;;;2.20;;
52512;SDS011;38422;53.172;6.974;2024-01-27T06:38:19;10.57;;;1.67;;
52512;SDS011;38422;53.172;6.974;2024-01-27T06:40:45;11.13;;;1.45;;
52512;SDS011;38422;53.172;6.974;2024-01-27T06:43:11;10.18;;;1.52;;
52512;SDS011;38422;53.172;6.974;2024-01-27T06:45:38;8.48;;;1.38;;
52512;SDS011;38422;53.172;6.974;2024-01-27T06:48:04;9.13;;;1.42;;
52512;SDS011;38422;53.172;6.974;2024-01-27T06:50:31;6.05;;;1.00;;
52512;SDS011;38422;53.172;6.974;2024-01-27T06:52:56;7.30;;;1.10;;
52512;SDS011;38422;53.172;6.974;2024-01-27T06:55:25;12.80;;;1.30;;
52512;SDS011;38422;53.172;6.974;2024-01-27T06:57:51;9.02;;;1.20;;
52512;SDS011;38422;53.172;6.974;2024-01-27T07:00:17;8.75;;;1.20;;
52512;SDS011;38422;53.172;6.974;2024-01-27T07:02:43;7.38;;;1.13;;
52512;SDS011;38422;53.172;6.974;2024-01-27T07:05:09;7.95;;;1.10;;
52512;SDS011;38422;53.172;6.974;2024-01-27T07:07:35;5.57;;;1.05;;
52512;SDS011;38422;53.172;6.974;2024-01-27T07:10:01;9.07;;;1.05;;
52512;SDS011;38422;53.172;6.974;2024-01-27T07:12:27;7.13;;;1.38;;
52512;SDS011;38422;53.172;6.974;2024-01-27T07:14:53;4.53;;;0.68;;
52512;SDS011;38422;53.172;6.974;2024-01-27T07:17:21;6.93;;;1.08;;
52512;SDS011;38422;53.172;6.974;2024-01-27T07:19:47;7.35;;;0.90;;
52512;SDS011;38422;53.172;6.974;2024-01-27T07:22:13;9.73;;;1.10;;
52512;SDS011;38422;53.172;6.974;2024-01-27T07:24:38;5.70;;;1.00;;
52512;SDS011;38422;53.172;6.974;2024-01-27T07:27:04;7.10;;;1.02;;
52512;SDS011;38422;53.172;6.974;2024-01-27T07:29:30;6.38;;;1.25;;
52512;SDS011;38422;53.172;6.974;2024-01-27T07:31:56;9.35;;;1.42;;
52512;SDS011;38422;53.172;6.974;2024-01-27T07:34:22;8.25;;;1.10;;
52512;SDS011;38422;53.172;6.974;2024-01-27T07:36:48;5.20;;;0.80;;
52512;SDS011;38422;53.172;6.974;2024-01-27T07:39:14;5.65;;;1.67;;
52512;SDS011;38422;53.172;6.974;2024-01-27T07:41:40;15.13;;;1.95;;
52512;SDS011;38422;53.172;6.974;2024-01-27T07:44:11;6.93;;;1.42;;
52512;SDS011;38422;53.172;6.974;2024-01-27T07:46:39;8.70;;;1.40;;
52512;SDS011;38422;53.172;6.974;2024-01-27T07:49:09;6.10;;;1.10;;
52512;SDS011;38422;53.172;6.974;2024-01-27T07:51:38;9.27;;;1.65;;
52512;SDS011;38422;53.172;6.974;2024-01-27T07:54:03;6.22;;;1.13;;
52512;SDS011;38422;53.172;6.974;2024-01-27T07:56:29;12.10;;;2.20;;
52512;SDS011;38422;53.172;6.974;2024-01-27T07:58:55;11.02;;;2.13;;
52512;SDS011;38422;53.172;6.974;2024-01-27T08:01:21;8.27;;;1.40;;
52512;SDS011;38422;53.172;6.974;2024-01-27T08:03:47;6.22;;;1.27;;
52512;SDS011;38422;53.172;6.974;2024-01-27T08:06:17;6.68;;;1.17;;
52512;SDS011;38422;53.172;6.974;2024-01-27T08:08:45;9.50;;;1.65;;
52512;SDS011;38422;53.172;6.974;2024-01-27T08:11:11;9.68;;;1.52;;
52512;SDS011;38422;53.172;6.974;2024-01-27T08:13:38;7.40;;;1.35;;
52512;SDS011;38422;53.172;6.974;2024-01-27T08:16:03;8.35;;;1.60;;
52512;SDS011;38422;53.172;6.974;2024-01-27T08:18:30;13.07;;;2.50;;
52512;SDS011;38422;53.172;6.974;2024-01-27T08:20:56;14.18;;;2.80;;
52512;SDS011;38422;53.172;6.974;2024-01-27T08:23:23;14.30;;;2.22;;
52512;SDS011;38422;53.172;6.974;2024-01-27T08:25:48;16.67;;;2.25;;
52512;SDS011;38422;53.172;6.974;2024-01-27T08:28:17;10.25;;;1.95;;
52512;SDS011;38422;53.172;6.974;2024-01-27T08:30:43;12.35;;;2.13;;
52512;SDS011;38422;53.172;6.974;2024-01-27T08:33:09;11.05;;;2.00;;
52512;SDS011;38422;53.172;6.974;2024-01-27T08:35:35;10.25;;;2.20;;
52512;SDS011;38422;53.172;6.974;2024-01-27T08:38:00;12.93;;;2.25;;
52512;SDS011;38422;53.172;6.974;2024-01-27T08:40:28;6.25;;;2.10;;
52512;SDS011;38422;53.172;6.974;2024-01-27T08:42:54;12.30;;;2.33;;
52512;SDS011;38422;53.172;6.974;2024-01-27T08:45:20;13.23;;;2.58;;
52512;SDS011;38422;53.172;6.974;2024-01-27T08:47:46;14.25;;;2.35;;
52512;SDS011;38422;53.172;6.974;2024-01-27T08:50:12;10.80;;;2.40;;
52512;SDS011;38422;53.172;6.974;2024-01-27T08:52:37;10.10;;;2.40;;
52512;SDS011;38422;53.172;6.974;2024-01-27T08:55:03;6.93;;;2.22;;
52512;SDS011;38422;53.172;6.974;2024-01-27T08:57:29;10.45;;;2.67;;
52512;SDS011;38422;53.172;6.974;2024-01-27T08:59:55;13.43;;;2.80;;
52512;SDS011;38422;53.172;6.974;2024-01-27T09:02:20;9.73;;;2.65;;
52512;SDS011;38422;53.172;6.974;2024-01-27T09:04:46;12.52;;;2.47;;
52512;SDS011;38422;53.172;6.974;2024-01-27T09:07:12;10.75;;;3.03;;
52512;SDS011;38422;53.172;6.974;2024-01-27T09:09:37;15.77;;;2.78;;
52512;SDS011;38422;53.172;6.974;2024-01-27T09:12:04;13.88;;;3.00;;
52512;SDS011;38422;53.172;6.974;2024-01-27T09:14:30;11.95;;;2.83;;
52512;SDS011;38422;53.172;6.974;2024-01-27T09:16:56;14.30;;;3.15;;
52512;SDS011;38422;53.172;6.974;2024-01-27T09:19:21;16.13;;;3.20;;
52512;SDS011;38422;53.172;6.974;2024-01-27T09:21:47;15.52;;;2.95;;
52512;SDS011;38422;53.172;6.974;2024-01-27T09:24:14;14.57;;;3.33;;
52512;SDS011;38422;53.172;6.974;2024-01-27T09:26:39;15.60;;;2.85;;
52512;SDS011;38422;53.172;6.974;2024-01-27T09:29:06;13.82;;;3.05;;
52512;SDS011;38422;53.172;6.974;2024-01-27T09:31:32;13.90;;;3.13;;
52512;SDS011;38422;53.172;6.974;2024-01-27T09:33:58;17.52;;;3.50;;
52512;SDS011;38422;53.172;6.974;2024-01-27T09:36:23;18.85;;;3.63;;
52512;SDS011;38422;53.172;6.974;2024-01-27T09:38:51;14.50;;;3.08;;
52512;SDS011;38422;53.172;6.974;2024-01-27T09:41:17;11.85;;;3.58;;
52512;SDS011;38422;53.172;6.974;2024-01-27T09:43:44;11.35;;;3.38;;
52512;SDS011;38422;53.172;6.974;2024-01-27T09:46:11;18.73;;;4.05;;
52512;SDS011;38422;53.172;6.974;2024-01-27T09:48:37;11.93;;;2.90;;
52512;SDS011;38422;53.172;6.974;2024-01-27T09:51:03;11.30;;;3.00;;
52512;SDS011;38422;53.172;6.974;2024-01-27T09:53:30;12.13;;;2.78;;
52512;SDS011;38422;53.172;6.974;2024-01-27T09:55:59;8.70;;;2.55;;
52512;SDS011;38422;53.172;6.974;2024-01-27T09:58:30;8.63;;;2.97;;
52512;SDS011;38422;53.172;6.974;2024-01-27T10:00:56;10.65;;;2.45;;
52512;SDS011;38422;53.172;6.974;2024-01-27T10:03:26;11.75;;;2.90;;
52512;SDS011;38422;53.172;6.974;2024-01-27T10:05:53;9.13;;;2.85;;
52512;SDS011;38422;53.172;6.974;2024-01-27T10:08:20;6.75;;;2.83;;
52512;SDS011;38422;53.172;6.974;2024-01-27T10:10:47;11.98;;;2.80;;
52512;SDS011;38422;53.172;6.974;2024-01-27T10:13:19;10.38;;;2.60;;
52512;SDS011;38422;53.172;6.974;2024-01-27T10:16:04;8.90;;;2.60;;
52512;SDS011;38422;53.172;6.974;2024-01-27T10:18:31;9.48;;;2.50;;
52512;SDS011;38422;53.172;6.974;2024-01-27T10:20:57;11.23;;;2.45;;
52512;SDS011;38422;53.172;6.974;2024-01-27T10:23:23;7.07;;;2.33;;
52512;SDS011;38422;53.172;6.974;2024-01-27T10:25:50;12.52;;;2.67;;
52512;SDS011;38422;53.172;6.974;2024-01-27T10:28:16;8.90;;;2.53;;
52512;SDS011;38422;53.172;6.974;2024-01-27T10:30:43;12.65;;;3.05;;
52512;SDS011;38422;53.172;6.974;2024-01-27T10:33:09;9.70;;;2.22;;
52512;SDS011;38422;53.172;6.974;2024-01-27T10:35:36;8.38;;;2.60;;
52512;SDS011;38422;53.172;6.974;2024-01-27T10:38:02;11.50;;;2.13;;
52512;SDS011;38422;53.172;6.974;2024-01-27T10:40:28;8.05;;;2.47;;
52512;SDS011;38422;53.172;6.974;2024-01-27T10:43:00;8.27;;;2.58;;
52512;SDS011;38422;53.172;6.974;2024-01-27T10:48:02;8.90;;;2.42;;
52512;SDS011;38422;53.172;6.974;2024-01-27T10:50:28;6.45;;;2.30;;
52512;SDS011;38422;53.172;6.974;2024-01-27T10:52:56;8.90;;;2.10;;
52512;SDS011;38422;53.172;6.974;2024-01-27T10:55:23;7.95;;;1.88;;
52512;SDS011;38422;53.172;6.974;2024-01-27T10:57:50;8.27;;;2.13;;
52512;SDS011;38422;53.172;6.974;2024-01-27T11:00:19;13.13;;;2.50;;
52512;SDS011;38422;53.172;6.974;2024-01-27T11:02:45;11.55;;;2.20;;
52512;SDS011;38422;53.172;6.974;2024-01-27T11:05:11;7.00;;;2.42;;
52512;SDS011;38422;53.172;6.974;2024-01-27T11:07:40;9.13;;;2.33;;
52512;SDS011;38422;53.172;6.974;2024-01-27T11:10:07;12.43;;;2.30;;
52512;SDS011;38422;53.172;6.974;2024-01-27T11:12:33;14.98;;;2.33;;
52512;SDS011;38422;53.172;6.974;2024-01-27T11:14:59;11.02;;;2.55;;
52512;SDS011;38422;53.172;6.974;2024-01-27T11:17:25;7.13;;;1.98;;
52512;SDS011;38422;53.172;6.974;2024-01-27T11:19:51;7.85;;;2.33;;
52512;SDS011;38422;53.172;6.974;2024-01-27T11:22:24;11.07;;;2.17;;
52512;SDS011;38422;53.172;6.974;2024-01-27T11:24:52;8.82;;;2.17;;
52512;SDS011;38422;53.172;6.974;2024-01-27T11:27:39;7.32;;;2.00;;
52512;SDS011;38422;53.172;6.974;2024-01-27T11:30:06;11.02;;;2.45;;
52512;SDS011;38422;53.172;6.974;2024-01-27T11:32:48;10.38;;;2.13;;
52512;SDS011;38422;53.172;6.974;2024-01-27T11:35:16;8.63;;;2.00;;
52512;SDS011;38422;53.172;6.974;2024-01-27T11:37:42;8.10;;;1.77;;
52512;SDS011;38422;53.172;6.974;2024-01-27T11:40:08;8.43;;;1.83;;
52512;SDS011;38422;53.172;6.974;2024-01-27T11:42:34;9.45;;;2.47;;
52512;SDS011;38422;53.172;6.974;2024-01-27T11:45:00;9.30;;;1.80;;
52512;SDS011;38422;53.172;6.974;2024-01-27T11:47:27;8.68;;;1.95;;
52512;SDS011;38422;53.172;6.974;2024-01-27T11:49:54;9.55;;;2.22;;
52512;SDS011;38422;53.172;6.974;2024-01-27T11:52:22;9.80;;;1.70;;
52512;SDS011;38422;53.172;6.974;2024-01-27T11:57:20;10.60;;;2.00;;
52512;SDS011;38422;53.172;6.974;2024-01-27T11:59:46;6.80;;;1.80;;
52512;SDS011;38422;53.172;6.974;2024-01-27T12:02:12;11.93;;;1.90;;
52512;SDS011;38422;53.172;6.974;2024-01-27T12:04:38;6.72;;;1.60;;
52512;SDS011;38422;53.172;6.974;2024-01-27T12:07:04;7.30;;;1.92;;
52512;SDS011;38422;53.172;6.974;2024-01-27T12:09:31;13.73;;;1.95;;
52512;SDS011;38422;53.172;6.974;2024-01-27T12:11:57;8.98;;;1.65;;
52512;SDS011;38422;53.172;6.974;2024-01-27T12:14:22;6.63;;;1.80;;
52512;SDS011;38422;53.172;6.974;2024-01-27T12:16:48;7.38;;;1.50;;
52512;SDS011;38422;53.172;6.974;2024-01-27T12:19:14;8.20;;;1.50;;
52512;SDS011;38422;53.172;6.974;2024-01-27T12:21:46;8.07;;;2.50;;
52512;SDS011;38422;53.172;6.974;2024-01-27T12:24:15;7.85;;;1.35;;
52512;SDS011;38422;53.172;6.974;2024-01-27T12:26:44;6.40;;;1.50;;
52512;SDS011;38422;53.172;6.974;2024-01-27T12:29:13;5.70;;;1.55;;
52512;SDS011;38422;53.172;6.974;2024-01-27T12:31:39;8.82;;;1.42;;
52512;SDS011;38422;53.172;6.974;2024-01-27T12:34:05;8.75;;;1.70;;
52512;SDS011;38422;53.172;6.974;2024-01-27T12:36:32;8.70;;;1.98;;
52512;SDS011;38422;53.172;6.974;2024-01-27T12:38:58;9.15;;;2.10;;
52512;SDS011;38422;53.172;6.974;2024-01-27T12:41:25;10.10;;;1.73;;
52512;SDS011;38422;53.172;6.974;2024-01-27T12:43:52;6.78;;;1.85;;
52512;SDS011;38422;53.172;6.974;2024-01-27T12:46:18;8.20;;;1.42;;
52512;SDS011;38422;53.172;6.974;2024-01-27T12:48:47;9.00;;;1.45;;
52512;SDS011;38422;53.172;6.974;2024-01-27T12:51:13;9.63;;;1.48;;
52512;SDS011;38422;53.172;6.974;2024-01-27T12:53:39;11.88;;;1.60;;
52512;SDS011;38422;53.172;6.974;2024-01-27T12:56:08;8.38;;;1.60;;
52512;SDS011;38422;53.172;6.974;2024-01-27T12:58:38;6.10;;;1.92;;
52512;SDS011;38422;53.172;6.974;2024-01-27T13:01:05;8.65;;;1.52;;
52512;SDS011;38422;53.172;6.974;2024-01-27T13:03:32;6.00;;;1.52;;
52512;SDS011;38422;53.172;6.974;2024-01-27T13:05:58;6.68;;;1.40;;
52512;SDS011;38422;53.172;6.974;2024-01-27T13:08:24;6.32;;;1.40;;
52512;SDS011;38422;53.172;6.974;2024-01-27T13:10:50;8.18;;;1.55;;
52512;SDS011;38422;53.172;6.974;2024-01-27T13:13:16;9.88;;;2.15;;
52512;SDS011;38422;53.172;6.974;2024-01-27T13:15:42;10.10;;;1.75;;
52512;SDS011;38422;53.172;6.974;2024-01-27T13:18:09;9.90;;;1.77;;
52512;SDS011;38422;53.172;6.974;2024-01-27T13:20:35;7.97;;;1.50;;
52512;SDS011;38422;53.172;6.974;2024-01-27T13:23:01;9.48;;;1.60;;
52512;SDS011;38422;53.172;6.974;2024-01-27T13:25:27;7.50;;;1.50;;
52512;SDS011;38422;53.172;6.974;2024-01-27T13:27:53;6.38;;;1.27;;
52512;SDS011;38422;53.172;6.974;2024-01-27T13:30:19;8.38;;;1.50;;
52512;SDS011;38422;53.172;6.974;2024-01-27T13:32:44;9.32;;;1.92;;
52512;SDS011;38422;53.172;6.974;2024-01-27T13:35:10;4.38;;;1.35;;
52512;SDS011;38422;53.172;6.974;2024-01-27T13:37:36;6.90;;;1.50;;
52512;SDS011;38422;53.172;6.974;2024-01-27T13:40:02;4.22;;;1.50;;
52512;SDS011;38422;53.172;6.974;2024-01-27T13:42:29;9.82;;;1.95;;
52512;SDS011;38422;53.172;6.974;2024-01-27T13:44:55;7.93;;;1.30;;
52512;SDS011;38422;53.172;6.974;2024-01-27T13:47:22;5.05;;;1.40;;
52512;SDS011;38422;53.172;6.974;2024-01-27T13:49:47;11.75;;;1.60;;
52512;SDS011;38422;53.172;6.974;2024-01-27T13:52:13;6.75;;;1.60;;
52512;SDS011;38422;53.172;6.974;2024-01-27T13:54:39;7.22;;;1.50;;
52512;SDS011;38422;53.172;6.974;2024-01-27T13:57:05;10.30;;;1.40;;
52512;SDS011;38422;53.172;6.974;2024-01-27T13:59:31;9.60;;;1.58;;
52512;SDS011;38422;53.172;6.974;2024-01-27T14:01:57;8.38;;;1.33;;
52512;SDS011;38422;53.172;6.974;2024-01-27T14:04:23;7.50;;;1.52;;
52512;SDS011;38422;53.172;6.974;2024-01-27T14:06:50;7.72;;;1.30;;
52512;SDS011;38422;53.172;6.974;2024-01-27T14:09:18;7.32;;;1.45;;
52512;SDS011;38422;53.172;6.974;2024-01-27T14:11:45;6.32;;;1.95;;
52512;SDS011;38422;53.172;6.974;2024-01-27T14:14:10;5.90;;;1.35;;
52512;SDS011;38422;53.172;6.974;2024-01-27T14:16:36;5.38;;;1.38;;
52512;SDS011;38422;53.172;6.974;2024-01-27T14:19:02;7.22;;;1.30;;
52512;SDS011;38422;53.172;6.974;2024-01-27T14:21:27;9.07;;;1.10;;
52512;SDS011;38422;53.172;6.974;2024-01-27T14:23:53;7.22;;;1.33;;
52512;SDS011;38422;53.172;6.974;2024-01-27T14:26:28;4.50;;;0.90;;
52512;SDS011;38422;53.172;6.974;2024-01-27T14:28:54;6.03;;;1.10;;
52512;SDS011;38422;53.172;6.974;2024-01-27T14:31:21;3.72;;;1.00;;
52512;SDS011;38422;53.172;6.974;2024-01-27T14:33:46;9.15;;;1.15;;
52512;SDS011;38422;53.172;6.974;2024-01-27T14:36:13;8.27;;;1.65;;
52512;SDS011;38422;53.172;6.974;2024-01-27T14:38:39;7.15;;;1.13;;
52512;SDS011;38422;53.172;6.974;2024-01-27T14:41:06;8.93;;;1.23;;